sensor_id;sensor_type;location;lat;lon;timestamp;P1;durP1;ratioP1;P2;durP2;ratioP2
82777;SDS011;72510;45.128;20.734;2023-11-22T00:02:09;32.40;;;18.02;;
82777;SDS011;72510;45.128;20.734;2023-11-22T00:12:10;34.75;;;19.23;;
82777;SDS011;72510;45.128;20.734;2023-11-22T00:22:11;34.45;;;19.90;;
82777;SDS011;72510;45.128;20.734;2023-11-22T00:32:15;37.28;;;20.08;;
82777;SDS011;72510;45.128;20.734;2023-11-22T00:42:16;28.45;;;17.50;;
82777;SDS011;72510;45.128;20.734;2023-11-22T00:52:21;28.85;;;17.63;;
82777;SDS011;72510;45.128;20.734;2023-11-22T01:02:26;32.05;;;18.13;;
82777;SDS011;72510;45.128;20.734;2023-11-22T01:12:28;35.47;;;18.85;;
82777;SDS011;72510;45.128;20.734;2023-11-22T01:22:29;30.02;;;16.83;;
82777;SDS011;72510;45.128;20.734;2023-11-22T01:32:33;29.80;;;17.50;;
82777;SDS011;72510;45.128;20.734;2023-11-22T01:42:37;32.15;;;17.15;;
82777;SDS011;72510;45.128;20.734;2023-11-22T01:52:40;33.05;;;18.50;;
82777;SDS011;72510;45.128;20.734;2023-11-22T02:02:43;31.42;;;18.60;;
82777;SDS011;72510;45.128;20.734;2023-11-22T02:12:44;37.20;;;19.35;;
82777;SDS011;72510;45.128;20.734;2023-11-22T02:22:46;29.65;;;17.02;;
82777;SDS011;72510;45.128;20.734;2023-11-22T02:32:51;36.20;;;18.35;;
82777;SDS011;72510;45.128;20.734;2023-11-22T02:42:53;36.05;;;19.55;;
82777;SDS011;72510;45.128;20.734;2023-11-22T02:52:54;32.20;;;17.80;;
82777;SDS011;72510;45.128;20.734;2023-11-22T03:02:56;32.22;;;18.20;;
82777;SDS011;72510;45.128;20.734;2023-11-22T03:12:57;35.92;;;18.92;;
82777;SDS011;72510;45.128;20.734;2023-11-22T03:22:59;31.58;;;18.27;;
82777;SDS011;72510;45.128;20.734;2023-11-22T03:33:03;32.15;;;17.95;;
82777;SDS011;72510;45.128;20.734;2023-11-22T03:43:05;33.22;;;17.98;;
82777;SDS011;72510;45.128;20.734;2023-11-22T03:53:10;38.13;;;18.92;;
82777;SDS011;72510;45.128;20.734;2023-11-22T04:03:11;38.63;;;19.60;;
82777;SDS011;72510;45.128;20.734;2023-11-22T04:13:13;41.58;;;17.98;;
82777;SDS011;72510;45.128;20.734;2023-11-22T04:23:14;39.45;;;19.77;;
82777;SDS011;72510;45.128;20.734;2023-11-22T04:33:15;41.22;;;20.52;;
82777;SDS011;72510;45.128;20.734;2023-11-22T04:53:19;41.20;;;19.73;;
82777;SDS011;72510;45.128;20.734;2023-11-22T05:03:22;38.65;;;19.88;;
82777;SDS011;72510;45.128;20.734;2023-11-22T05:13:24;49.25;;;23.48;;
82777;SDS011;72510;45.128;20.734;2023-11-22T05:23:25;56.13;;;23.30;;
82777;SDS011;72510;45.128;20.734;2023-11-22T05:33:29;55.10;;;24.38;;
82777;SDS011;72510;45.128;20.734;2023-11-22T05:43:32;56.63;;;23.98;;
82777;SDS011;72510;45.128;20.734;2023-11-22T05:53:37;57.83;;;25.25;;
82777;SDS011;72510;45.128;20.734;2023-11-22T06:03:38;60.40;;;24.48;;
82777;SDS011;72510;45.128;20.734;2023-11-22T06:13:42;62.35;;;24.90;;
82777;SDS011;72510;45.128;20.734;2023-11-22T06:23:49;61.92;;;24.02;;
82777;SDS011;72510;45.128;20.734;2023-11-22T06:43:55;64.13;;;27.45;;
82777;SDS011;72510;45.128;20.734;2023-11-22T06:53:59;79.70;;;26.95;;
82777;SDS011;72510;45.128;20.734;2023-11-22T07:04:06;59.33;;;26.33;;
82777;SDS011;72510;45.128;20.734;2023-11-22T07:14:07;55.83;;;24.23;;
82777;SDS011;72510;45.128;20.734;2023-11-22T07:24:09;52.10;;;23.10;;
82777;SDS011;72510;45.128;20.734;2023-11-22T07:34:14;80.78;;;25.80;;
82777;SDS011;72510;45.128;20.734;2023-11-22T07:44:18;68.13;;;23.45;;
82777;SDS011;72510;45.128;20.734;2023-11-22T07:54:19;102.28;;;27.60;;
82777;SDS011;72510;45.128;20.734;2023-11-22T08:04:23;81.75;;;25.55;;
82777;SDS011;72510;45.128;20.734;2023-11-22T08:14:24;62.92;;;23.83;;
82777;SDS011;72510;45.128;20.734;2023-11-22T08:24:28;72.70;;;24.02;;
82777;SDS011;72510;45.128;20.734;2023-11-22T08:34:30;68.93;;;23.40;;
82777;SDS011;72510;45.128;20.734;2023-11-22T08:44:31;65.85;;;22.08;;
82777;SDS011;72510;45.128;20.734;2023-11-22T08:54:32;68.15;;;22.83;;
82777;SDS011;72510;45.128;20.734;2023-11-22T09:04:34;58.83;;;21.90;;
82777;SDS011;72510;45.128;20.734;2023-11-22T09:14:36;60.58;;;22.58;;
82777;SDS011;72510;45.128;20.734;2023-11-22T09:24:37;66.07;;;24.00;;
82777;SDS011;72510;45.128;20.734;2023-11-22T09:34:39;68.47;;;25.17;;
82777;SDS011;72510;45.128;20.734;2023-11-22T09:44:40;62.30;;;23.75;;
82777;SDS011;72510;45.128;20.734;2023-11-22T09:54:42;59.75;;;23.67;;
82777;SDS011;72510;45.128;20.734;2023-11-22T10:04:45;62.60;;;25.25;;
82777;SDS011;72510;45.128;20.734;2023-11-22T10:14:48;65.00;;;24.70;;
82777;SDS011;72510;45.128;20.734;2023-11-22T10:24:50;53.13;;;23.55;;
82777;SDS011;72510;45.128;20.734;2023-11-22T10:34:56;56.47;;;25.45;;
82777;SDS011;72510;45.128;20.734;2023-11-22T10:44:57;65.38;;;27.00;;
82777;SDS011;72510;45.128;20.734;2023-11-22T10:55:05;56.97;;;24.73;;
82777;SDS011;72510;45.128;20.734;2023-11-22T11:05:11;56.33;;;24.25;;
82777;SDS011;72510;45.128;20.734;2023-11-22T11:15:21;46.95;;;21.88;;
82777;SDS011;72510;45.128;20.734;2023-11-22T11:25:22;48.90;;;20.45;;
82777;SDS011;72510;45.128;20.734;2023-11-22T11:35:39;45.00;;;20.17;;
82777;SDS011;72510;45.128;20.734;2023-11-22T11:45:44;41.35;;;19.23;;
82777;SDS011;72510;45.128;20.734;2023-11-22T11:55:49;47.15;;;20.10;;
82777;SDS011;72510;45.128;20.734;2023-11-22T12:05:54;47.22;;;21.45;;
82777;SDS011;72510;45.128;20.734;2023-11-22T12:15:55;47.42;;;21.08;;
82777;SDS011;72510;45.128;20.734;2023-11-22T12:25:57;40.20;;;18.50;;
82777;SDS011;72510;45.128;20.734;2023-11-22T12:35:58;45.55;;;19.05;;
82777;SDS011;72510;45.128;20.734;2023-11-22T12:56:05;43.90;;;19.48;;
82777;SDS011;72510;45.128;20.734;2023-11-22T13:06:07;38.63;;;18.48;;
82777;SDS011;72510;45.128;20.734;2023-11-22T13:16:09;40.85;;;18.27;;
82777;SDS011;72510;45.128;20.734;2023-11-22T13:26:11;39.50;;;19.35;;
82777;SDS011;72510;45.128;20.734;2023-11-22T13:36:16;36.17;;;17.90;;
82777;SDS011;72510;45.128;20.734;2023-11-22T13:46:19;41.17;;;19.63;;
82777;SDS011;72510;45.128;20.734;2023-11-22T14:06:23;37.15;;;17.75;;
82777;SDS011;72510;45.128;20.734;2023-11-22T14:16:25;36.55;;;18.08;;
82777;SDS011;72510;45.128;20.734;2023-11-22T14:26:27;27.70;;;14.43;;
82777;SDS011;72510;45.128;20.734;2023-11-22T14:36:28;19.70;;;10.60;;
82777;SDS011;72510;45.128;20.734;2023-11-22T14:46:33;20.48;;;10.25;;
82777;SDS011;72510;45.128;20.734;2023-11-22T14:56:35;16.52;;;9.55;;
82777;SDS011;72510;45.128;20.734;2023-11-22T15:06:39;17.58;;;9.90;;
82777;SDS011;72510;45.128;20.734;2023-11-22T15:16:40;20.25;;;10.43;;
82777;SDS011;72510;45.128;20.734;2023-11-22T15:26:41;17.83;;;10.00;;
82777;SDS011;72510;45.128;20.734;2023-11-22T15:36:42;15.80;;;8.70;;
82777;SDS011;72510;45.128;20.734;2023-11-22T15:46:44;15.68;;;9.35;;
82777;SDS011;72510;45.128;20.734;2023-11-22T15:56:48;16.75;;;8.55;;
82777;SDS011;72510;45.128;20.734;2023-11-22T16:06:51;12.32;;;6.97;;
82777;SDS011;72510;45.128;20.734;2023-11-22T16:16:52;10.63;;;6.65;;
82777;SDS011;72510;45.128;20.734;2023-11-22T16:26:54;6.47;;;4.47;;
82777;SDS011;72510;45.128;20.734;2023-11-22T16:36:55;8.85;;;5.43;;
82777;SDS011;72510;45.128;20.734;2023-11-22T16:46:58;8.68;;;5.22;;
82777;SDS011;72510;45.128;20.734;2023-11-22T16:57:00;7.82;;;5.45;;
82777;SDS011;72510;45.128;20.734;2023-11-22T17:07:04;8.63;;;5.18;;
82777;SDS011;72510;45.128;20.734;2023-11-22T17:17:06;10.65;;;6.22;;
82777;SDS011;72510;45.128;20.734;2023-11-22T17:27:07;10.63;;;7.03;;
82777;SDS011;72510;45.128;20.734;2023-11-22T17:37:10;13.30;;;6.75;;
82777;SDS011;72510;45.128;20.734;2023-11-22T17:47:20;10.35;;;5.80;;
82777;SDS011;72510;45.128;20.734;2023-11-22T17:57:21;11.93;;;7.32;;
82777;SDS011;72510;45.128;20.734;2023-11-22T18:07:23;12.30;;;6.75;;
82777;SDS011;72510;45.128;20.734;2023-11-22T18:17:25;11.55;;;6.47;;
82777;SDS011;72510;45.128;20.734;2023-11-22T18:27:27;12.50;;;7.32;;
82777;SDS011;72510;45.128;20.734;2023-11-22T18:37:28;12.65;;;6.43;;
82777;SDS011;72510;45.128;20.734;2023-11-22T18:47:29;14.20;;;6.95;;
82777;SDS011;72510;45.128;20.734;2023-11-22T18:57:31;12.70;;;8.02;;
82777;SDS011;72510;45.128;20.734;2023-11-22T19:07:32;13.55;;;7.85;;
82777;SDS011;72510;45.128;20.734;2023-11-22T19:17:33;13.45;;;8.05;;
82777;SDS011;72510;45.128;20.734;2023-11-22T19:27:35;13.00;;;7.90;;
82777;SDS011;72510;45.128;20.734;2023-11-22T19:37:38;12.05;;;7.05;;
82777;SDS011;72510;45.128;20.734;2023-11-22T19:47:42;10.48;;;6.68;;
82777;SDS011;72510;45.128;20.734;2023-11-22T19:57:44;12.55;;;7.38;;
82777;SDS011;72510;45.128;20.734;2023-11-22T20:07:45;11.90;;;6.55;;
82777;SDS011;72510;45.128;20.734;2023-11-22T20:17:50;14.10;;;7.80;;
82777;SDS011;72510;45.128;20.734;2023-11-22T20:27:51;18.67;;;8.05;;
82777;SDS011;72510;45.128;20.734;2023-11-22T20:37:52;11.38;;;7.15;;
82777;SDS011;72510;45.128;20.734;2023-11-22T20:47:53;13.15;;;7.50;;
82777;SDS011;72510;45.128;20.734;2023-11-22T20:57:54;14.35;;;8.07;;
82777;SDS011;72510;45.128;20.734;2023-11-22T21:07:58;14.82;;;7.43;;
82777;SDS011;72510;45.128;20.734;2023-11-22T21:17:59;15.02;;;7.60;;
82777;SDS011;72510;45.128;20.734;2023-11-22T21:28:00;14.48;;;7.70;;
82777;SDS011;72510;45.128;20.734;2023-11-22T21:38:04;13.45;;;7.47;;
82777;SDS011;72510;45.128;20.734;2023-11-22T21:48:05;13.93;;;8.15;;
82777;SDS011;72510;45.128;20.734;2023-11-22T21:58:07;14.63;;;7.78;;
82777;SDS011;72510;45.128;20.734;2023-11-22T22:08:13;12.40;;;7.32;;
82777;SDS011;72510;45.128;20.734;2023-11-22T22:18:14;14.88;;;8.23;;
82777;SDS011;72510;45.128;20.734;2023-11-22T22:28:16;16.10;;;8.10;;
82777;SDS011;72510;45.128;20.734;2023-11-22T22:38:18;19.27;;;9.45;;
82777;SDS011;72510;45.128;20.734;2023-11-22T22:48:22;13.85;;;7.50;;
82777;SDS011;72510;45.128;20.734;2023-11-22T22:58:23;14.82;;;7.63;;
82777;SDS011;72510;45.128;20.734;2023-11-22T23:08:24;15.43;;;8.48;;
82777;SDS011;72510;45.128;20.734;2023-11-22T23:18:25;18.60;;;8.63;;
82777;SDS011;72510;45.128;20.734;2023-11-22T23:28:26;15.98;;;7.80;;
82777;SDS011;72510;45.128;20.734;2023-11-22T23:38:27;17.25;;;9.35;;
82777;SDS011;72510;45.128;20.734;2023-11-22T23:48:29;19.27;;;10.02;;
82777;SDS011;72510;45.128;20.734;2023-11-22T23:58:30;20.33;;;9.65;;
